ZPPP/KMG METAR and TAF weather

Enter ICAO airport designator
Station Type Date Time Source
ZPPP METAR 2020/03/31 10:00 UTC NOAA

ZPPP 311000Z 22010MPS CAVOK 26/M06 Q1015 NOSIG


Station Type Date Time Source
ZPPP Decoded METAR 2020/03/31 10:00 UTC NOAA

Kunming, China (ZPPP) 25-01N 102-41E 1892M
Mar 31, 2020 - 06:00 AM EDT / 2020.03.31 1000 UTC
Wind: from the SW (220 degrees) at 22 MPH (19 KT):0
Visibility: greater than 7 mile(s):0
Temperature: 78 F (26 C)
Dew Point: 21 F (-6 C)
Relative Humidity: 11%
Pressure (altimeter): 29.97 in. Hg (1015 hPa)
ob: ZPPP 311000Z 22010MPS CAVOK 26/M06 Q1015 NOSIG
cycle: 10

Station Type Date Time Source
ZPPP TAF 2020/03/31 12:03 UTC NOAA

TAF ZPPP 310906Z 3112/0112 23006MPS 9999 FEW026 TX28/0108Z TN13/3123Z
BECMG 0103/0104 23012G20MPS
BECMG 0111/0112 23006MPS

Example: see airport list